sensor_id;sensor_type;location;lat;lon;timestamp;pressure;altitude;pressure_sealevel;temperature;humidity
64876;BME280;51369;49.862;9.908;2023-07-08T00:01:12;98493.09;;;19.97;47.56
64876;BME280;51369;49.862;9.908;2023-07-08T00:03:39;98489.59;;;19.95;47.55
64876;BME280;51369;49.862;9.908;2023-07-08T00:06:09;98493.22;;;19.95;48.29
64876;BME280;51369;49.862;9.908;2023-07-08T00:08:36;98500.56;;;19.95;48.45
64876;BME280;51369;49.862;9.908;2023-07-08T00:11:04;98501.31;;;19.97;48.96
64876;BME280;51369;49.862;9.908;2023-07-08T00:13:32;98485.00;;;19.95;49.95
64876;BME280;51369;49.862;9.908;2023-07-08T00:15:58;98488.97;;;19.91;49.65
64876;BME280;51369;49.862;9.908;2023-07-08T00:18:23;98482.84;;;19.88;49.98
64876;BME280;51369;49.862;9.908;2023-07-08T00:20:50;98486.84;;;19.83;49.58
64876;BME280;51369;49.862;9.908;2023-07-08T00:23:16;98482.59;;;19.79;50.73
64876;BME280;51369;49.862;9.908;2023-07-08T00:25:42;98480.34;;;19.73;50.83
64876;BME280;51369;49.862;9.908;2023-07-08T00:28:09;98486.28;;;19.67;50.47
64876;BME280;51369;49.862;9.908;2023-07-08T00:30:35;98478.44;;;19.63;50.26
64876;BME280;51369;49.862;9.908;2023-07-08T00:33:00;98475.06;;;19.59;50.07
64876;BME280;51369;49.862;9.908;2023-07-08T00:35:34;98469.94;;;19.55;49.90
64876;BME280;51369;49.862;9.908;2023-07-08T00:38:01;98471.91;;;19.53;50.54
64876;BME280;51369;49.862;9.908;2023-07-08T00:40:29;98469.50;;;19.48;50.85
64876;BME280;51369;49.862;9.908;2023-07-08T00:42:56;98460.88;;;19.41;51.59
64876;BME280;51369;49.862;9.908;2023-07-08T00:48:05;98458.47;;;19.26;51.79
64876;BME280;51369;49.862;9.908;2023-07-08T00:50:31;98470.97;;;19.17;52.14
64876;BME280;51369;49.862;9.908;2023-07-08T00:53:32;98467.47;;;19.04;52.17
64876;BME280;51369;49.862;9.908;2023-07-08T00:56:11;98470.03;;;18.94;52.84
64876;BME280;51369;49.862;9.908;2023-07-08T00:58:50;98462.38;;;18.87;52.65
64876;BME280;51369;49.862;9.908;2023-07-08T01:01:17;98473.13;;;18.77;52.35
64876;BME280;51369;49.862;9.908;2023-07-08T01:03:56;98470.44;;;18.64;53.09
64876;BME280;51369;49.862;9.908;2023-07-08T01:06:27;98473.47;;;18.60;53.34
64876;BME280;51369;49.862;9.908;2023-07-08T01:09:02;98470.56;;;18.50;52.87
64876;BME280;51369;49.862;9.908;2023-07-08T01:11:28;98481.06;;;18.43;52.15
64876;BME280;51369;49.862;9.908;2023-07-08T01:13:55;98479.53;;;18.39;51.64
64876;BME280;51369;49.862;9.908;2023-07-08T01:16:22;98480.84;;;18.34;51.51
64876;BME280;51369;49.862;9.908;2023-07-08T01:18:48;98475.59;;;18.31;51.49
64876;BME280;51369;49.862;9.908;2023-07-08T01:21:44;98478.56;;;18.28;52.52
64876;BME280;51369;49.862;9.908;2023-07-08T01:24:10;98484.03;;;18.28;53.22
64876;BME280;51369;49.862;9.908;2023-07-08T01:26:39;98479.56;;;18.27;53.79
64876;BME280;51369;49.862;9.908;2023-07-08T01:29:05;98482.41;;;18.25;53.25
64876;BME280;51369;49.862;9.908;2023-07-08T01:31:32;98478.03;;;18.23;53.94
64876;BME280;51369;49.862;9.908;2023-07-08T01:33:58;98484.69;;;18.18;53.92
64876;BME280;51369;49.862;9.908;2023-07-08T01:36:24;98482.41;;;18.12;54.28
64876;BME280;51369;49.862;9.908;2023-07-08T01:38:51;98489.19;;;18.07;54.33
64876;BME280;51369;49.862;9.908;2023-07-08T01:41:17;98477.81;;;18.00;54.47
64876;BME280;51369;49.862;9.908;2023-07-08T01:43:43;98481.75;;;17.96;54.42
64876;BME280;51369;49.862;9.908;2023-07-08T01:46:15;98478.47;;;17.91;54.38
64876;BME280;51369;49.862;9.908;2023-07-08T01:48:50;98478.69;;;17.88;53.99
64876;BME280;51369;49.862;9.908;2023-07-08T01:51:17;98469.94;;;17.83;53.32
64876;BME280;51369;49.862;9.908;2023-07-08T01:53:43;98477.38;;;17.81;53.49
64876;BME280;51369;49.862;9.908;2023-07-08T01:56:11;98466.88;;;17.75;54.11
64876;BME280;51369;49.862;9.908;2023-07-08T01:58:36;98462.59;;;17.71;54.06
64876;BME280;51369;49.862;9.908;2023-07-08T02:01:03;98466.53;;;17.67;53.91
64876;BME280;51369;49.862;9.908;2023-07-08T02:03:29;98457.53;;;17.65;55.05
64876;BME280;51369;49.862;9.908;2023-07-08T02:05:55;98464.00;;;17.64;55.36
64876;BME280;51369;49.862;9.908;2023-07-08T02:08:21;98457.00;;;17.60;55.52
64876;BME280;51369;49.862;9.908;2023-07-08T02:10:54;98467.25;;;17.56;54.63
64876;BME280;51369;49.862;9.908;2023-07-08T02:13:21;98475.75;;;17.51;54.34
64876;BME280;51369;49.862;9.908;2023-07-08T02:15:48;98477.16;;;17.44;55.09
64876;BME280;51369;49.862;9.908;2023-07-08T02:18:13;98474.19;;;17.35;53.64
64876;BME280;51369;49.862;9.908;2023-07-08T02:20:42;98477.59;;;17.26;52.80
64876;BME280;51369;49.862;9.908;2023-07-08T02:23:08;98479.84;;;17.19;53.80
64876;BME280;51369;49.862;9.908;2023-07-08T02:25:33;98474.59;;;17.16;53.64
64876;BME280;51369;49.862;9.908;2023-07-08T02:27:59;98479.28;;;17.14;54.68
64876;BME280;51369;49.862;9.908;2023-07-08T02:30:24;98483.31;;;17.08;54.02
64876;BME280;51369;49.862;9.908;2023-07-08T02:32:50;98486.13;;;17.07;54.27
64876;BME280;51369;49.862;9.908;2023-07-08T02:35:23;98487.88;;;17.08;55.00
64876;BME280;51369;49.862;9.908;2023-07-08T02:37:48;98487.00;;;17.07;54.89
64876;BME280;51369;49.862;9.908;2023-07-08T02:40:14;98492.66;;;17.04;55.00
64876;BME280;51369;49.862;9.908;2023-07-08T02:42:40;98490.16;;;17.01;54.99
64876;BME280;51369;49.862;9.908;2023-07-08T02:45:06;98483.16;;;16.97;54.63
64876;BME280;51369;49.862;9.908;2023-07-08T02:47:31;98486.09;;;16.94;55.60
64876;BME280;51369;49.862;9.908;2023-07-08T02:49:56;98489.88;;;16.91;55.86
64876;BME280;51369;49.862;9.908;2023-07-08T02:52:22;98489.22;;;16.88;55.75
64876;BME280;51369;49.862;9.908;2023-07-08T02:54:47;98489.22;;;16.88;56.06
64876;BME280;51369;49.862;9.908;2023-07-08T02:57:12;98486.59;;;16.86;56.19
64876;BME280;51369;49.862;9.908;2023-07-08T02:59:38;98492.03;;;16.86;56.45
64876;BME280;51369;49.862;9.908;2023-07-08T03:02:04;98488.34;;;16.87;56.83
64876;BME280;51369;49.862;9.908;2023-07-08T03:04:29;98485.63;;;16.87;56.81
64876;BME280;51369;49.862;9.908;2023-07-08T03:06:55;98492.91;;;16.87;56.66
64876;BME280;51369;49.862;9.908;2023-07-08T03:09:21;98498.47;;;16.85;57.25
64876;BME280;51369;49.862;9.908;2023-07-08T03:11:46;98508.63;;;16.83;56.49
64876;BME280;51369;49.862;9.908;2023-07-08T03:14:11;98511.63;;;16.79;56.34
64876;BME280;51369;49.862;9.908;2023-07-08T03:16:37;98519.16;;;16.75;56.38
64876;BME280;51369;49.862;9.908;2023-07-08T03:19:03;98522.06;;;16.72;56.84
64876;BME280;51369;49.862;9.908;2023-07-08T03:21:30;98513.13;;;16.70;56.83
64876;BME280;51369;49.862;9.908;2023-07-08T03:23:57;98515.84;;;16.70;57.01
64876;BME280;51369;49.862;9.908;2023-07-08T03:26:24;98507.88;;;16.67;56.80
64876;BME280;51369;49.862;9.908;2023-07-08T03:28:51;98509.00;;;16.63;57.29
64876;BME280;51369;49.862;9.908;2023-07-08T03:31:18;98512.72;;;16.62;57.48
64876;BME280;51369;49.862;9.908;2023-07-08T03:33:45;98523.63;;;16.62;57.00
64876;BME280;51369;49.862;9.908;2023-07-08T03:36:13;98531.88;;;16.60;57.31
64876;BME280;51369;49.862;9.908;2023-07-08T03:38:53;98524.78;;;16.58;57.60
64876;BME280;51369;49.862;9.908;2023-07-08T03:41:19;98530.63;;;16.52;58.03
64876;BME280;51369;49.862;9.908;2023-07-08T03:43:45;98525.28;;;16.50;58.44
64876;BME280;51369;49.862;9.908;2023-07-08T03:46:13;98527.13;;;16.50;57.36
64876;BME280;51369;49.862;9.908;2023-07-08T03:48:39;98536.19;;;16.50;57.05
64876;BME280;51369;49.862;9.908;2023-07-08T03:51:19;98536.38;;;16.47;57.57
64876;BME280;51369;49.862;9.908;2023-07-08T03:53:46;98533.84;;;16.44;56.85
64876;BME280;51369;49.862;9.908;2023-07-08T03:56:12;98536.66;;;16.43;57.17
64876;BME280;51369;49.862;9.908;2023-07-08T03:58:39;98535.13;;;16.39;57.22
64876;BME280;51369;49.862;9.908;2023-07-08T04:01:13;98539.78;;;16.37;57.43
64876;BME280;51369;49.862;9.908;2023-07-08T04:03:41;98538.91;;;16.36;57.72
64876;BME280;51369;49.862;9.908;2023-07-08T04:06:06;98542.50;;;16.37;57.90
64876;BME280;51369;49.862;9.908;2023-07-08T04:08:31;98539.59;;;16.40;58.27
64876;BME280;51369;49.862;9.908;2023-07-08T04:10:57;98540.38;;;16.42;58.18
64876;BME280;51369;49.862;9.908;2023-07-08T04:13:22;98537.53;;;16.43;58.51
64876;BME280;51369;49.862;9.908;2023-07-08T04:15:53;98543.78;;;16.45;58.10
64876;BME280;51369;49.862;9.908;2023-07-08T04:18:20;98536.38;;;16.47;58.41
64876;BME280;51369;49.862;9.908;2023-07-08T04:20:45;98527.22;;;16.48;58.24
64876;BME280;51369;49.862;9.908;2023-07-08T04:23:18;98539.00;;;16.49;58.10
64876;BME280;51369;49.862;9.908;2023-07-08T04:25:44;98534.44;;;16.49;57.29
64876;BME280;51369;49.862;9.908;2023-07-08T04:28:09;98527.91;;;16.52;57.53
64876;BME280;51369;49.862;9.908;2023-07-08T04:30:34;98532.28;;;16.54;57.45
64876;BME280;51369;49.862;9.908;2023-07-08T04:33:12;98531.22;;;16.57;57.83
64876;BME280;51369;49.862;9.908;2023-07-08T04:35:38;98538.50;;;16.56;57.22
64876;BME280;51369;49.862;9.908;2023-07-08T04:38:06;98530.34;;;16.56;56.91
64876;BME280;51369;49.862;9.908;2023-07-08T04:40:36;98542.00;;;16.58;56.68
64876;BME280;51369;49.862;9.908;2023-07-08T04:43:08;98539.28;;;16.58;57.38
64876;BME280;51369;49.862;9.908;2023-07-08T04:45:36;98541.91;;;16.60;57.00
64876;BME280;51369;49.862;9.908;2023-07-08T04:48:03;98534.50;;;16.62;58.01
64876;BME280;51369;49.862;9.908;2023-07-08T04:50:34;98535.28;;;16.64;57.47
64876;BME280;51369;49.862;9.908;2023-07-08T04:53:00;98536.97;;;16.67;58.98
64876;BME280;51369;49.862;9.908;2023-07-08T04:55:25;98544.19;;;16.68;59.13
64876;BME280;51369;49.862;9.908;2023-07-08T04:57:51;98542.13;;;16.71;59.42
64876;BME280;51369;49.862;9.908;2023-07-08T05:00:17;98541.06;;;16.74;59.54
64876;BME280;51369;49.862;9.908;2023-07-08T05:02:44;98540.84;;;16.77;59.68
64876;BME280;51369;49.862;9.908;2023-07-08T05:05:10;98538.81;;;16.80;60.07
64876;BME280;51369;49.862;9.908;2023-07-08T05:07:35;98538.50;;;16.85;59.67
64876;BME280;51369;49.862;9.908;2023-07-08T05:10:00;98540.84;;;16.91;60.13
64876;BME280;51369;49.862;9.908;2023-07-08T05:12:26;98532.34;;;16.96;60.82
64876;BME280;51369;49.862;9.908;2023-07-08T05:14:52;98536.53;;;17.01;60.81
64876;BME280;51369;49.862;9.908;2023-07-08T05:17:17;98547.81;;;17.09;60.05
64876;BME280;51369;49.862;9.908;2023-07-08T05:19:43;98552.53;;;17.20;60.46
64876;BME280;51369;49.862;9.908;2023-07-08T05:22:10;98549.00;;;17.32;61.30
64876;BME280;51369;49.862;9.908;2023-07-08T05:24:36;98556.22;;;17.46;61.33
64876;BME280;51369;49.862;9.908;2023-07-08T05:27:02;98553.44;;;17.60;60.74
64876;BME280;51369;49.862;9.908;2023-07-08T05:29:29;98558.63;;;17.77;60.11
64876;BME280;51369;49.862;9.908;2023-07-08T05:31:54;98557.34;;;17.96;59.42
64876;BME280;51369;49.862;9.908;2023-07-08T05:34:20;98562.31;;;18.16;59.08
64876;BME280;51369;49.862;9.908;2023-07-08T05:36:45;98558.16;;;18.36;58.05
64876;BME280;51369;49.862;9.908;2023-07-08T05:39:10;98555.63;;;18.58;57.19
64876;BME280;51369;49.862;9.908;2023-07-08T05:41:36;98561.31;;;18.80;56.75
64876;BME280;51369;49.862;9.908;2023-07-08T05:44:02;98549.91;;;18.99;55.34
64876;BME280;51369;49.862;9.908;2023-07-08T05:46:27;98550.13;;;19.20;54.75
64876;BME280;51369;49.862;9.908;2023-07-08T05:48:53;98551.38;;;19.40;54.18
64876;BME280;51369;49.862;9.908;2023-07-08T05:51:20;98550.00;;;19.58;53.52
64876;BME280;51369;49.862;9.908;2023-07-08T05:53:45;98548.25;;;19.92;52.86
64876;BME280;51369;49.862;9.908;2023-07-08T05:56:10;98538.88;;;20.30;52.07
64876;BME280;51369;49.862;9.908;2023-07-08T05:58:36;98543.56;;;20.52;51.09
64876;BME280;51369;49.862;9.908;2023-07-08T06:01:01;98533.09;;;20.68;50.73
64876;BME280;51369;49.862;9.908;2023-07-08T06:03:26;98523.44;;;20.85;50.86
64876;BME280;51369;49.862;9.908;2023-07-08T06:05:52;98526.66;;;21.01;50.45
64876;BME280;51369;49.862;9.908;2023-07-08T06:08:18;98533.16;;;21.22;50.40
64876;BME280;51369;49.862;9.908;2023-07-08T06:10:44;98537.97;;;21.41;50.13
64876;BME280;51369;49.862;9.908;2023-07-08T06:13:11;98536.16;;;21.62;49.40
64876;BME280;51369;49.862;9.908;2023-07-08T06:15:36;98542.44;;;21.85;49.19
64876;BME280;51369;49.862;9.908;2023-07-08T06:18:02;98542.09;;;22.11;47.74
64876;BME280;51369;49.862;9.908;2023-07-08T06:20:29;98542.56;;;22.36;47.17
64876;BME280;51369;49.862;9.908;2023-07-08T06:22:54;98547.47;;;22.63;46.46
64876;BME280;51369;49.862;9.908;2023-07-08T06:25:20;98545.16;;;22.89;45.58
64876;BME280;51369;49.862;9.908;2023-07-08T06:27:45;98539.28;;;23.13;45.26
64876;BME280;51369;49.862;9.908;2023-07-08T06:30:11;98549.06;;;23.36;44.75
64876;BME280;51369;49.862;9.908;2023-07-08T06:32:36;98540.72;;;23.57;43.46
64876;BME280;51369;49.862;9.908;2023-07-08T06:35:02;98535.97;;;23.79;43.97
64876;BME280;51369;49.862;9.908;2023-07-08T06:37:27;98538.16;;;23.94;43.39
64876;BME280;51369;49.862;9.908;2023-07-08T06:39:53;98537.13;;;24.15;42.79
64876;BME280;51369;49.862;9.908;2023-07-08T06:42:18;98538.41;;;24.30;43.04
64876;BME280;51369;49.862;9.908;2023-07-08T06:44:52;98546.06;;;24.46;42.47
64876;BME280;51369;49.862;9.908;2023-07-08T06:47:18;98541.09;;;24.59;41.70
64876;BME280;51369;49.862;9.908;2023-07-08T06:49:48;98541.63;;;24.72;42.02
64876;BME280;51369;49.862;9.908;2023-07-08T06:52:14;98539.56;;;24.84;42.15
64876;BME280;51369;49.862;9.908;2023-07-08T06:54:39;98532.97;;;24.94;41.71
64876;BME280;51369;49.862;9.908;2023-07-08T06:57:05;98525.41;;;25.06;41.75
64876;BME280;51369;49.862;9.908;2023-07-08T06:59:31;98529.84;;;25.17;41.08
64876;BME280;51369;49.862;9.908;2023-07-08T07:01:57;98521.50;;;25.26;41.27
64876;BME280;51369;49.862;9.908;2023-07-08T07:04:22;98528.88;;;25.36;41.70
64876;BME280;51369;49.862;9.908;2023-07-08T07:06:47;98513.97;;;25.46;42.09
64876;BME280;51369;49.862;9.908;2023-07-08T07:09:13;98515.63;;;25.57;41.35
64876;BME280;51369;49.862;9.908;2023-07-08T07:11:38;98522.72;;;25.69;41.60
64876;BME280;51369;49.862;9.908;2023-07-08T07:14:03;98517.66;;;25.82;41.88
64876;BME280;51369;49.862;9.908;2023-07-08T07:16:29;98513.31;;;25.98;40.86
64876;BME280;51369;49.862;9.908;2023-07-08T07:18:54;98515.31;;;26.13;41.60
64876;BME280;51369;49.862;9.908;2023-07-08T07:21:20;98512.84;;;26.28;40.87
64876;BME280;51369;49.862;9.908;2023-07-08T07:23:45;98512.13;;;26.44;41.09
64876;BME280;51369;49.862;9.908;2023-07-08T07:26:11;98515.16;;;26.58;40.66
64876;BME280;51369;49.862;9.908;2023-07-08T07:28:36;98519.22;;;26.72;40.91
64876;BME280;51369;49.862;9.908;2023-07-08T07:31:04;98522.09;;;26.88;39.92
64876;BME280;51369;49.862;9.908;2023-07-08T07:33:31;98525.84;;;27.05;40.29
64876;BME280;51369;49.862;9.908;2023-07-08T07:35:57;98514.84;;;27.21;39.70
64876;BME280;51369;49.862;9.908;2023-07-08T07:38:23;98516.63;;;27.39;39.46
64876;BME280;51369;49.862;9.908;2023-07-08T07:40:55;98518.44;;;27.56;39.93
64876;BME280;51369;49.862;9.908;2023-07-08T07:43:21;98532.16;;;27.74;38.92
64876;BME280;51369;49.862;9.908;2023-07-08T07:45:53;98530.78;;;27.86;38.48
64876;BME280;51369;49.862;9.908;2023-07-08T07:48:19;98529.94;;;28.02;38.73
64876;BME280;51369;49.862;9.908;2023-07-08T07:50:48;98524.25;;;28.19;38.62
64876;BME280;51369;49.862;9.908;2023-07-08T07:53:15;98540.25;;;28.34;38.37
64876;BME280;51369;49.862;9.908;2023-07-08T07:55:40;98541.97;;;28.43;37.79
64876;BME280;51369;49.862;9.908;2023-07-08T07:58:06;98534.84;;;28.48;37.81
64876;BME280;51369;49.862;9.908;2023-07-08T08:00:33;98539.34;;;28.58;37.70
64876;BME280;51369;49.862;9.908;2023-07-08T08:02:58;98538.31;;;28.67;38.08
64876;BME280;51369;49.862;9.908;2023-07-08T08:05:24;98540.03;;;28.76;37.09
64876;BME280;51369;49.862;9.908;2023-07-08T08:07:49;98539.31;;;28.82;38.02
64876;BME280;51369;49.862;9.908;2023-07-08T08:10:15;98546.44;;;28.93;37.17
64876;BME280;51369;49.862;9.908;2023-07-08T08:12:41;98548.84;;;29.04;37.06
64876;BME280;51369;49.862;9.908;2023-07-08T08:15:07;98556.63;;;29.17;37.46
64876;BME280;51369;49.862;9.908;2023-07-08T08:17:32;98561.97;;;29.26;37.06
64876;BME280;51369;49.862;9.908;2023-07-08T08:19:58;98562.13;;;29.33;36.53
64876;BME280;51369;49.862;9.908;2023-07-08T08:22:23;98568.38;;;29.43;37.06
64876;BME280;51369;49.862;9.908;2023-07-08T08:24:49;98574.19;;;29.56;37.13
64876;BME280;51369;49.862;9.908;2023-07-08T08:27:15;98578.88;;;29.64;36.83
64876;BME280;51369;49.862;9.908;2023-07-08T08:29:40;98579.38;;;29.67;36.39
64876;BME280;51369;49.862;9.908;2023-07-08T08:32:06;98581.59;;;29.72;36.70
64876;BME280;51369;49.862;9.908;2023-07-08T08:34:31;98570.97;;;29.75;36.53
64876;BME280;51369;49.862;9.908;2023-07-08T08:36:57;98573.41;;;29.78;35.69
64876;BME280;51369;49.862;9.908;2023-07-08T08:39:22;98576.19;;;29.78;36.66
64876;BME280;51369;49.862;9.908;2023-07-08T08:41:50;98569.59;;;29.71;36.04
64876;BME280;51369;49.862;9.908;2023-07-08T08:44:26;98574.34;;;29.63;35.52
64876;BME280;51369;49.862;9.908;2023-07-08T08:49:37;98573.97;;;29.66;35.72
64876;BME280;51369;49.862;9.908;2023-07-08T08:52:05;98567.09;;;29.85;34.89
64876;BME280;51369;49.862;9.908;2023-07-08T08:54:32;98568.88;;;30.08;34.97
64876;BME280;51369;49.862;9.908;2023-07-08T08:59:53;98571.44;;;30.64;33.91
64876;BME280;51369;49.862;9.908;2023-07-08T09:02:41;98574.09;;;30.95;33.91
64876;BME280;51369;49.862;9.908;2023-07-08T09:05:09;98574.81;;;31.26;33.53
64876;BME280;51369;49.862;9.908;2023-07-08T09:07:46;98566.91;;;31.45;31.56
64876;BME280;51369;49.862;9.908;2023-07-08T09:10:29;98573.53;;;31.58;31.73
64876;BME280;51369;49.862;9.908;2023-07-08T09:13:02;98577.22;;;31.74;31.63
64876;BME280;51369;49.862;9.908;2023-07-08T09:15:29;98575.25;;;31.89;31.88
64876;BME280;51369;49.862;9.908;2023-07-08T09:17:57;98575.69;;;32.07;31.56
64876;BME280;51369;49.862;9.908;2023-07-08T09:20:27;98574.88;;;32.28;31.47
64876;BME280;51369;49.862;9.908;2023-07-08T09:22:59;98567.16;;;32.51;30.70
64876;BME280;51369;49.862;9.908;2023-07-08T09:25:33;98561.34;;;32.74;31.05
64876;BME280;51369;49.862;9.908;2023-07-08T09:28:01;98551.44;;;32.99;31.35
64876;BME280;51369;49.862;9.908;2023-07-08T09:30:27;98553.75;;;33.24;29.61
64876;BME280;51369;49.862;9.908;2023-07-08T09:32:55;98541.59;;;33.38;29.87
64876;BME280;51369;49.862;9.908;2023-07-08T09:35:29;98550.50;;;33.55;29.12
64876;BME280;51369;49.862;9.908;2023-07-08T09:38:06;98542.19;;;33.75;28.92
64876;BME280;51369;49.862;9.908;2023-07-08T09:40:33;98546.63;;;33.97;28.19
64876;BME280;51369;49.862;9.908;2023-07-08T09:43:03;98554.88;;;34.18;28.79
64876;BME280;51369;49.862;9.908;2023-07-08T09:45:41;98556.91;;;34.38;27.78
64876;BME280;51369;49.862;9.908;2023-07-08T09:48:16;98559.06;;;34.49;28.06
64876;BME280;51369;49.862;9.908;2023-07-08T09:50:43;98550.88;;;34.61;26.96
64876;BME280;51369;49.862;9.908;2023-07-08T09:53:13;98555.19;;;34.63;26.97
64876;BME280;51369;49.862;9.908;2023-07-08T09:55:38;98545.06;;;34.62;27.01
64876;BME280;51369;49.862;9.908;2023-07-08T09:58:04;98550.84;;;34.67;27.13
64876;BME280;51369;49.862;9.908;2023-07-08T10:00:41;98547.44;;;34.65;27.40
64876;BME280;51369;49.862;9.908;2023-07-08T10:03:21;98551.09;;;34.66;26.95
64876;BME280;51369;49.862;9.908;2023-07-08T10:05:48;98556.47;;;34.80;27.32
64876;BME280;51369;49.862;9.908;2023-07-08T10:08:22;98545.06;;;34.88;26.31
64876;BME280;51369;49.862;9.908;2023-07-08T10:10:52;98548.72;;;35.02;26.05
64876;BME280;51369;49.862;9.908;2023-07-08T10:16:11;98545.47;;;35.12;25.89
64876;BME280;51369;49.862;9.908;2023-07-08T10:18:37;98537.91;;;35.19;25.99
64876;BME280;51369;49.862;9.908;2023-07-08T10:21:19;98535.53;;;35.16;25.88
64876;BME280;51369;49.862;9.908;2023-07-08T10:24:10;98533.56;;;35.23;25.49
64876;BME280;51369;49.862;9.908;2023-07-08T10:26:46;98540.06;;;35.37;25.64
64876;BME280;51369;49.862;9.908;2023-07-08T10:29:32;98524.44;;;35.54;24.92
64876;BME280;51369;49.862;9.908;2023-07-08T10:32:19;98520.28;;;35.70;25.96
64876;BME280;51369;49.862;9.908;2023-07-08T10:45:40;98510.06;;;36.51;23.76
64876;BME280;51369;49.862;9.908;2023-07-08T10:48:35;98517.78;;;36.63;23.67
64876;BME280;51369;49.862;9.908;2023-07-08T10:51:13;98519.81;;;36.80;23.95
64876;BME280;51369;49.862;9.908;2023-07-08T10:54:07;98516.16;;;36.80;23.25
64876;BME280;51369;49.862;9.908;2023-07-08T10:57:03;98512.66;;;36.85;23.98
64876;BME280;51369;49.862;9.908;2023-07-08T11:05:22;98505.59;;;37.19;23.76
64876;BME280;51369;49.862;9.908;2023-07-08T11:08:02;98507.28;;;37.26;23.21
64876;BME280;51369;49.862;9.908;2023-07-08T11:11:01;98506.47;;;37.19;23.27
64876;BME280;51369;49.862;9.908;2023-07-08T11:13:28;98506.91;;;37.16;23.00
64876;BME280;51369;49.862;9.908;2023-07-08T11:16:01;98503.94;;;37.11;23.43
64876;BME280;51369;49.862;9.908;2023-07-08T11:18:54;98505.44;;;37.13;23.07
64876;BME280;51369;49.862;9.908;2023-07-08T11:21:27;98499.72;;;37.20;22.95
64876;BME280;51369;49.862;9.908;2023-07-08T11:26:44;98494.34;;;37.19;22.56
64876;BME280;51369;49.862;9.908;2023-07-08T11:29:38;98484.88;;;37.13;23.46
64876;BME280;51369;49.862;9.908;2023-07-08T11:32:06;98497.38;;;37.17;23.83
64876;BME280;51369;49.862;9.908;2023-07-08T11:34:36;98481.34;;;37.18;23.94
64876;BME280;51369;49.862;9.908;2023-07-08T11:37:03;98479.59;;;37.23;21.90
64876;BME280;51369;49.862;9.908;2023-07-08T11:39:39;98474.34;;;37.27;22.96
64876;BME280;51369;49.862;9.908;2023-07-08T11:42:23;98480.91;;;37.39;22.74
64876;BME280;51369;49.862;9.908;2023-07-08T11:44:54;98480.06;;;37.57;23.19
64876;BME280;51369;49.862;9.908;2023-07-08T11:47:37;98476.22;;;37.69;22.62
64876;BME280;51369;49.862;9.908;2023-07-08T11:50:18;98474.72;;;37.85;23.48
64876;BME280;51369;49.862;9.908;2023-07-08T11:52:58;98469.84;;;37.92;22.96
64876;BME280;51369;49.862;9.908;2023-07-08T11:55:26;98466.44;;;38.02;22.99
64876;BME280;51369;49.862;9.908;2023-07-08T11:57:54;98474.19;;;38.06;22.27
64876;BME280;51369;49.862;9.908;2023-07-08T12:00:25;98473.13;;;38.19;22.94
64876;BME280;51369;49.862;9.908;2023-07-08T12:02:57;98477.34;;;38.40;23.28
64876;BME280;51369;49.862;9.908;2023-07-08T12:05:32;98471.75;;;38.52;22.47
64876;BME280;51369;49.862;9.908;2023-07-08T12:07:58;98468.59;;;38.60;22.09
64876;BME280;51369;49.862;9.908;2023-07-08T12:10:38;98473.84;;;38.56;22.29
64876;BME280;51369;49.862;9.908;2023-07-08T12:13:11;98465.03;;;38.64;22.24
64876;BME280;51369;49.862;9.908;2023-07-08T12:15:38;98455.84;;;38.81;23.31
64876;BME280;51369;49.862;9.908;2023-07-08T12:18:36;98467.50;;;38.96;21.64
64876;BME280;51369;49.862;9.908;2023-07-08T12:21:04;98457.84;;;39.15;22.88
64876;BME280;51369;49.862;9.908;2023-07-08T12:23:30;98451.69;;;39.30;23.47
64876;BME280;51369;49.862;9.908;2023-07-08T12:25:57;98463.94;;;39.35;22.79
64876;BME280;51369;49.862;9.908;2023-07-08T12:28:25;98466.66;;;39.30;21.84
64876;BME280;51369;49.862;9.908;2023-07-08T12:30:51;98465.31;;;39.21;22.24
64876;BME280;51369;49.862;9.908;2023-07-08T12:33:28;98457.47;;;39.23;22.16
64876;BME280;51369;49.862;9.908;2023-07-08T12:35:55;98458.91;;;39.37;21.78
64876;BME280;51369;49.862;9.908;2023-07-08T12:38:30;98459.63;;;39.45;21.73
64876;BME280;51369;49.862;9.908;2023-07-08T12:40:59;98456.19;;;39.43;21.60
64876;BME280;51369;49.862;9.908;2023-07-08T12:43:26;98453.41;;;39.31;21.74
64876;BME280;51369;49.862;9.908;2023-07-08T12:45:51;98451.94;;;39.17;21.79
64876;BME280;51369;49.862;9.908;2023-07-08T12:48:17;98449.84;;;39.12;22.12
64876;BME280;51369;49.862;9.908;2023-07-08T12:50:42;98451.09;;;39.16;20.78
64876;BME280;51369;49.862;9.908;2023-07-08T12:53:08;98451.44;;;39.20;22.02
64876;BME280;51369;49.862;9.908;2023-07-08T12:55:39;98457.69;;;39.33;22.03
64876;BME280;51369;49.862;9.908;2023-07-08T12:58:10;98448.22;;;39.51;21.73
64876;BME280;51369;49.862;9.908;2023-07-08T13:00:39;98450.97;;;39.75;21.80
64876;BME280;51369;49.862;9.908;2023-07-08T13:03:12;98445.47;;;39.96;20.98
64876;BME280;51369;49.862;9.908;2023-07-08T13:05:40;98448.09;;;40.15;22.10
64876;BME280;51369;49.862;9.908;2023-07-08T13:08:14;98447.84;;;40.33;20.58
64876;BME280;51369;49.862;9.908;2023-07-08T13:10:42;98450.91;;;40.43;20.76
64876;BME280;51369;49.862;9.908;2023-07-08T13:13:17;98450.13;;;40.48;21.14
64876;BME280;51369;49.862;9.908;2023-07-08T13:15:43;98441.66;;;40.64;21.64
64876;BME280;51369;49.862;9.908;2023-07-08T13:18:30;98439.53;;;40.88;22.41
64876;BME280;51369;49.862;9.908;2023-07-08T13:20:57;98443.69;;;41.19;19.75
64876;BME280;51369;49.862;9.908;2023-07-08T13:23:24;98447.19;;;41.26;20.67
64876;BME280;51369;49.862;9.908;2023-07-08T13:25:51;98444.56;;;41.20;22.15
64876;BME280;51369;49.862;9.908;2023-07-08T13:28:22;98445.84;;;41.12;20.71
64876;BME280;51369;49.862;9.908;2023-07-08T13:30:59;98446.63;;;40.91;20.51
64876;BME280;51369;49.862;9.908;2023-07-08T13:33:30;98437.13;;;40.80;21.36
64876;BME280;51369;49.862;9.908;2023-07-08T13:35:56;98442.84;;;40.69;21.53
64876;BME280;51369;49.862;9.908;2023-07-08T13:38:25;98444.41;;;40.59;21.36
64876;BME280;51369;49.862;9.908;2023-07-08T13:40:56;98430.50;;;40.58;20.93